sensor_id;sensor_type;location;lat;lon;timestamp;temperature;humidity
25250;DHT22;13201;51.148;13.738;2023-12-14T00:00:27;8.50;99.90
25250;DHT22;13201;51.148;13.738;2023-12-14T00:02:52;8.30;99.90
25250;DHT22;13201;51.148;13.738;2023-12-14T00:05:18;8.30;99.90
25250;DHT22;13201;51.148;13.738;2023-12-14T00:07:44;8.30;99.90
25250;DHT22;13201;51.148;13.738;2023-12-14T00:10:10;8.30;99.90
25250;DHT22;13201;51.148;13.738;2023-12-14T00:12:35;8.20;99.90
25250;DHT22;13201;51.148;13.738;2023-12-14T00:15:01;8.10;99.90
25250;DHT22;13201;51.148;13.738;2023-12-14T00:17:27;8.10;99.90
25250;DHT22;13201;51.148;13.738;2023-12-14T00:19:53;8.10;99.90
25250;DHT22;13201;51.148;13.738;2023-12-14T00:22:19;8.20;99.90
25250;DHT22;13201;51.148;13.738;2023-12-14T00:24:44;8.00;99.90
25250;DHT22;13201;51.148;13.738;2023-12-14T00:27:10;8.00;99.90
25250;DHT22;13201;51.148;13.738;2023-12-14T00:29:35;8.10;99.90
25250;DHT22;13201;51.148;13.738;2023-12-14T00:32:01;8.10;99.90
25250;DHT22;13201;51.148;13.738;2023-12-14T00:34:27;8.10;99.90
25250;DHT22;13201;51.148;13.738;2023-12-14T00:36:52;8.10;99.90
25250;DHT22;13201;51.148;13.738;2023-12-14T00:39:18;8.10;99.90
25250;DHT22;13201;51.148;13.738;2023-12-14T00:41:44;8.10;99.90
25250;DHT22;13201;51.148;13.738;2023-12-14T00:44:09;8.20;99.90
25250;DHT22;13201;51.148;13.738;2023-12-14T00:46:35;8.30;99.90
25250;DHT22;13201;51.148;13.738;2023-12-14T00:49:01;8.30;99.90
25250;DHT22;13201;51.148;13.738;2023-12-14T00:51:27;8.30;99.90
25250;DHT22;13201;51.148;13.738;2023-12-14T00:53:53;8.30;99.90
25250;DHT22;13201;51.148;13.738;2023-12-14T00:56:19;8.30;99.90
25250;DHT22;13201;51.148;13.738;2023-12-14T00:58:44;8.40;99.90
25250;DHT22;13201;51.148;13.738;2023-12-14T01:01:10;8.40;99.90
25250;DHT22;13201;51.148;13.738;2023-12-14T01:28:12;7.10;99.90
25250;DHT22;13201;51.148;13.738;2023-12-14T01:30:39;6.90;99.90
25250;DHT22;13201;51.148;13.738;2023-12-14T01:33:05;7.00;99.90
25250;DHT22;13201;51.148;13.738;2023-12-14T01:35:30;7.00;99.90
25250;DHT22;13201;51.148;13.738;2023-12-14T01:37:56;7.20;99.90
25250;DHT22;13201;51.148;13.738;2023-12-14T01:40:21;7.30;99.90
25250;DHT22;13201;51.148;13.738;2023-12-14T01:42:47;7.30;99.90
25250;DHT22;13201;51.148;13.738;2023-12-14T01:45:13;7.20;99.90
25250;DHT22;13201;51.148;13.738;2023-12-14T01:47:44;7.30;99.90
25250;DHT22;13201;51.148;13.738;2023-12-14T01:50:10;7.40;99.90
25250;DHT22;13201;51.148;13.738;2023-12-14T01:52:36;7.50;99.90
25250;DHT22;13201;51.148;13.738;2023-12-14T01:55:02;7.40;99.90
25250;DHT22;13201;51.148;13.738;2023-12-14T01:57:28;7.50;99.90
25250;DHT22;13201;51.148;13.738;2023-12-14T01:59:54;7.40;99.90
25250;DHT22;13201;51.148;13.738;2023-12-14T02:02:19;7.40;99.90
25250;DHT22;13201;51.148;13.738;2023-12-14T02:04:45;7.30;99.90
25250;DHT22;13201;51.148;13.738;2023-12-14T02:07:11;7.30;99.90
25250;DHT22;13201;51.148;13.738;2023-12-14T02:09:37;7.40;99.90
25250;DHT22;13201;51.148;13.738;2023-12-14T02:12:02;7.40;99.90
25250;DHT22;13201;51.148;13.738;2023-12-14T02:14:28;7.40;99.90
25250;DHT22;13201;51.148;13.738;2023-12-14T02:16:54;7.40;99.90
25250;DHT22;13201;51.148;13.738;2023-12-14T02:19:19;7.20;99.90
25250;DHT22;13201;51.148;13.738;2023-12-14T02:21:45;7.20;99.90
25250;DHT22;13201;51.148;13.738;2023-12-14T02:24:11;7.30;99.90
25250;DHT22;13201;51.148;13.738;2023-12-14T02:26:36;7.30;99.90
25250;DHT22;13201;51.148;13.738;2023-12-14T02:29:02;7.50;99.90
25250;DHT22;13201;51.148;13.738;2023-12-14T02:31:28;7.40;99.90
25250;DHT22;13201;51.148;13.738;2023-12-14T02:33:54;7.40;99.90
25250;DHT22;13201;51.148;13.738;2023-12-14T02:36:19;7.50;99.90
25250;DHT22;13201;51.148;13.738;2023-12-14T02:38:45;7.50;99.90
25250;DHT22;13201;51.148;13.738;2023-12-14T02:41:11;7.50;99.90
25250;DHT22;13201;51.148;13.738;2023-12-14T02:43:36;7.40;99.90
25250;DHT22;13201;51.148;13.738;2023-12-14T02:46:03;7.30;99.90
25250;DHT22;13201;51.148;13.738;2023-12-14T02:48:29;7.30;99.90
25250;DHT22;13201;51.148;13.738;2023-12-14T02:50:55;7.30;99.90
25250;DHT22;13201;51.148;13.738;2023-12-14T02:53:21;7.30;99.90
25250;DHT22;13201;51.148;13.738;2023-12-14T02:55:47;7.30;99.90
25250;DHT22;13201;51.148;13.738;2023-12-14T02:58:13;7.40;99.90
25250;DHT22;13201;51.148;13.738;2023-12-14T03:00:39;7.40;99.90
25250;DHT22;13201;51.148;13.738;2023-12-14T03:03:04;7.40;99.90
25250;DHT22;13201;51.148;13.738;2023-12-14T03:05:30;7.30;99.90
25250;DHT22;13201;51.148;13.738;2023-12-14T03:07:56;7.40;99.90
25250;DHT22;13201;51.148;13.738;2023-12-14T03:10:21;7.40;99.90
25250;DHT22;13201;51.148;13.738;2023-12-14T03:12:47;7.50;99.90
25250;DHT22;13201;51.148;13.738;2023-12-14T03:15:12;7.50;99.90
25250;DHT22;13201;51.148;13.738;2023-12-14T03:17:38;7.50;99.90
25250;DHT22;13201;51.148;13.738;2023-12-14T03:20:04;7.50;99.90
25250;DHT22;13201;51.148;13.738;2023-12-14T03:22:31;7.50;99.90
25250;DHT22;13201;51.148;13.738;2023-12-14T03:24:58;7.60;99.90
25250;DHT22;13201;51.148;13.738;2023-12-14T03:27:23;7.60;99.90
25250;DHT22;13201;51.148;13.738;2023-12-14T03:29:50;7.60;99.90
25250;DHT22;13201;51.148;13.738;2023-12-14T03:32:15;7.70;99.90
25250;DHT22;13201;51.148;13.738;2023-12-14T03:34:41;7.70;99.90
25250;DHT22;13201;51.148;13.738;2023-12-14T03:37:07;7.70;99.90
25250;DHT22;13201;51.148;13.738;2023-12-14T03:39:32;7.70;99.90
25250;DHT22;13201;51.148;13.738;2023-12-14T03:41:58;7.80;99.90
25250;DHT22;13201;51.148;13.738;2023-12-14T03:44:24;7.80;99.90
25250;DHT22;13201;51.148;13.738;2023-12-14T03:46:50;7.80;99.90
25250;DHT22;13201;51.148;13.738;2023-12-14T03:49:15;7.70;99.90
25250;DHT22;13201;51.148;13.738;2023-12-14T03:51:41;7.80;99.90
25250;DHT22;13201;51.148;13.738;2023-12-14T03:54:07;7.90;99.90
25250;DHT22;13201;51.148;13.738;2023-12-14T03:56:32;7.80;99.90
25250;DHT22;13201;51.148;13.738;2023-12-14T03:58:58;7.80;99.90
25250;DHT22;13201;51.148;13.738;2023-12-14T04:01:24;7.80;99.90
25250;DHT22;13201;51.148;13.738;2023-12-14T04:03:50;7.80;99.90
25250;DHT22;13201;51.148;13.738;2023-12-14T04:06:16;7.90;99.90
25250;DHT22;13201;51.148;13.738;2023-12-14T04:08:42;7.90;99.90
25250;DHT22;13201;51.148;13.738;2023-12-14T04:11:08;7.80;99.90
25250;DHT22;13201;51.148;13.738;2023-12-14T04:13:34;7.90;99.90
25250;DHT22;13201;51.148;13.738;2023-12-14T04:16:00;7.90;99.90
25250;DHT22;13201;51.148;13.738;2023-12-14T04:18:26;7.80;99.90
25250;DHT22;13201;51.148;13.738;2023-12-14T04:20:52;7.80;99.90
25250;DHT22;13201;51.148;13.738;2023-12-14T04:23:18;7.90;99.90
25250;DHT22;13201;51.148;13.738;2023-12-14T04:25:44;7.70;99.90
25250;DHT22;13201;51.148;13.738;2023-12-14T04:28:10;7.70;99.90
25250;DHT22;13201;51.148;13.738;2023-12-14T04:30:35;7.80;99.90
25250;DHT22;13201;51.148;13.738;2023-12-14T04:33:01;7.80;99.90
25250;DHT22;13201;51.148;13.738;2023-12-14T04:35:27;7.80;99.90
25250;DHT22;13201;51.148;13.738;2023-12-14T04:37:52;7.80;99.90
25250;DHT22;13201;51.148;13.738;2023-12-14T04:40:18;7.80;99.90
25250;DHT22;13201;51.148;13.738;2023-12-14T04:42:44;7.70;99.90
25250;DHT22;13201;51.148;13.738;2023-12-14T04:45:10;7.70;99.90
25250;DHT22;13201;51.148;13.738;2023-12-14T04:47:37;7.80;99.90
25250;DHT22;13201;51.148;13.738;2023-12-14T04:50:03;7.80;99.90
25250;DHT22;13201;51.148;13.738;2023-12-14T04:52:28;7.70;99.90
25250;DHT22;13201;51.148;13.738;2023-12-14T04:54:54;7.70;99.90
25250;DHT22;13201;51.148;13.738;2023-12-14T04:57:20;7.60;99.90
25250;DHT22;13201;51.148;13.738;2023-12-14T04:59:46;7.50;99.90
25250;DHT22;13201;51.148;13.738;2023-12-14T05:02:11;7.60;99.90
25250;DHT22;13201;51.148;13.738;2023-12-14T05:04:37;7.60;99.90
25250;DHT22;13201;51.148;13.738;2023-12-14T05:07:03;7.50;99.90
25250;DHT22;13201;51.148;13.738;2023-12-14T05:09:29;7.50;99.90
25250;DHT22;13201;51.148;13.738;2023-12-14T05:11:54;7.50;99.90
25250;DHT22;13201;51.148;13.738;2023-12-14T05:14:20;7.60;99.90
25250;DHT22;13201;51.148;13.738;2023-12-14T05:16:45;7.50;99.90
25250;DHT22;13201;51.148;13.738;2023-12-14T05:19:11;7.60;99.90
25250;DHT22;13201;51.148;13.738;2023-12-14T05:21:38;7.60;99.90
25250;DHT22;13201;51.148;13.738;2023-12-14T05:24:04;7.50;99.90
25250;DHT22;13201;51.148;13.738;2023-12-14T05:26:30;7.50;99.90
25250;DHT22;13201;51.148;13.738;2023-12-14T05:28:55;7.50;99.90
25250;DHT22;13201;51.148;13.738;2023-12-14T05:31:21;7.50;99.90
25250;DHT22;13201;51.148;13.738;2023-12-14T05:33:47;7.50;99.90
25250;DHT22;13201;51.148;13.738;2023-12-14T05:36:13;7.60;99.90
25250;DHT22;13201;51.148;13.738;2023-12-14T05:38:39;7.60;99.90
25250;DHT22;13201;51.148;13.738;2023-12-14T05:41:05;7.60;99.90
25250;DHT22;13201;51.148;13.738;2023-12-14T05:43:31;7.60;99.90
25250;DHT22;13201;51.148;13.738;2023-12-14T05:45:57;7.40;99.90
25250;DHT22;13201;51.148;13.738;2023-12-14T05:48:23;7.40;99.90
25250;DHT22;13201;51.148;13.738;2023-12-14T05:50:48;7.30;99.90
25250;DHT22;13201;51.148;13.738;2023-12-14T05:53:14;7.40;99.90
25250;DHT22;13201;51.148;13.738;2023-12-14T05:55:41;7.40;99.90
25250;DHT22;13201;51.148;13.738;2023-12-14T05:58:07;7.50;99.90
25250;DHT22;13201;51.148;13.738;2023-12-14T06:00:33;7.30;99.90
25250;DHT22;13201;51.148;13.738;2023-12-14T06:03:00;7.30;99.90
25250;DHT22;13201;51.148;13.738;2023-12-14T06:05:26;7.40;99.90
25250;DHT22;13201;51.148;13.738;2023-12-14T06:07:52;7.20;99.90
25250;DHT22;13201;51.148;13.738;2023-12-14T06:10:18;7.30;99.90
25250;DHT22;13201;51.148;13.738;2023-12-14T06:12:43;7.20;99.90
25250;DHT22;13201;51.148;13.738;2023-12-14T06:15:09;7.20;99.90
25250;DHT22;13201;51.148;13.738;2023-12-14T06:17:36;7.20;99.90
25250;DHT22;13201;51.148;13.738;2023-12-14T06:20:05;7.10;99.90
25250;DHT22;13201;51.148;13.738;2023-12-14T06:22:31;7.30;99.90
25250;DHT22;13201;51.148;13.738;2023-12-14T06:24:56;7.20;99.90
25250;DHT22;13201;51.148;13.738;2023-12-14T06:27:22;7.10;99.90
25250;DHT22;13201;51.148;13.738;2023-12-14T06:29:52;7.20;99.90
25250;DHT22;13201;51.148;13.738;2023-12-14T06:32:17;7.10;99.90
25250;DHT22;13201;51.148;13.738;2023-12-14T06:34:43;7.10;99.90
25250;DHT22;13201;51.148;13.738;2023-12-14T06:37:09;7.10;99.90
25250;DHT22;13201;51.148;13.738;2023-12-14T06:39:36;7.10;99.90
25250;DHT22;13201;51.148;13.738;2023-12-14T06:42:02;7.00;99.90
25250;DHT22;13201;51.148;13.738;2023-12-14T06:44:27;7.10;99.90
25250;DHT22;13201;51.148;13.738;2023-12-14T06:46:54;7.00;99.90
25250;DHT22;13201;51.148;13.738;2023-12-14T06:49:21;7.00;99.90
25250;DHT22;13201;51.148;13.738;2023-12-14T06:51:46;6.80;99.90
25250;DHT22;13201;51.148;13.738;2023-12-14T06:54:12;6.80;99.90
25250;DHT22;13201;51.148;13.738;2023-12-14T06:56:38;6.70;99.90
25250;DHT22;13201;51.148;13.738;2023-12-14T06:59:03;6.70;99.90
25250;DHT22;13201;51.148;13.738;2023-12-14T07:01:29;6.70;99.90
25250;DHT22;13201;51.148;13.738;2023-12-14T07:03:55;6.70;99.90
25250;DHT22;13201;51.148;13.738;2023-12-14T07:06:20;6.70;99.90
25250;DHT22;13201;51.148;13.738;2023-12-14T07:08:47;6.80;99.90
25250;DHT22;13201;51.148;13.738;2023-12-14T07:11:13;6.70;99.90
25250;DHT22;13201;51.148;13.738;2023-12-14T07:13:39;6.80;99.90
25250;DHT22;13201;51.148;13.738;2023-12-14T07:16:07;6.80;99.90
25250;DHT22;13201;51.148;13.738;2023-12-14T07:18:34;6.70;99.90
25250;DHT22;13201;51.148;13.738;2023-12-14T07:21:01;6.80;99.90
25250;DHT22;13201;51.148;13.738;2023-12-14T07:23:27;6.80;99.90
25250;DHT22;13201;51.148;13.738;2023-12-14T07:25:53;6.90;99.90
25250;DHT22;13201;51.148;13.738;2023-12-14T07:28:18;6.80;99.90
25250;DHT22;13201;51.148;13.738;2023-12-14T07:30:45;6.90;99.90
25250;DHT22;13201;51.148;13.738;2023-12-14T07:33:12;6.90;99.90
25250;DHT22;13201;51.148;13.738;2023-12-14T07:35:37;6.80;99.90
25250;DHT22;13201;51.148;13.738;2023-12-14T07:38:03;6.80;99.90
25250;DHT22;13201;51.148;13.738;2023-12-14T07:40:29;6.90;99.90
25250;DHT22;13201;51.148;13.738;2023-12-14T07:42:54;6.80;99.90
25250;DHT22;13201;51.148;13.738;2023-12-14T07:45:20;6.80;99.90
25250;DHT22;13201;51.148;13.738;2023-12-14T07:47:46;6.70;99.90
25250;DHT22;13201;51.148;13.738;2023-12-14T07:50:12;6.90;99.90
25250;DHT22;13201;51.148;13.738;2023-12-14T07:52:39;6.80;99.90
25250;DHT22;13201;51.148;13.738;2023-12-14T07:55:05;6.90;99.90
25250;DHT22;13201;51.148;13.738;2023-12-14T07:57:31;6.90;99.90
25250;DHT22;13201;51.148;13.738;2023-12-14T07:59:57;6.90;99.90
25250;DHT22;13201;51.148;13.738;2023-12-14T08:02:23;6.80;99.90
25250;DHT22;13201;51.148;13.738;2023-12-14T08:04:48;6.80;99.90
25250;DHT22;13201;51.148;13.738;2023-12-14T08:07:14;6.80;99.90
25250;DHT22;13201;51.148;13.738;2023-12-14T08:09:40;6.70;99.90
25250;DHT22;13201;51.148;13.738;2023-12-14T08:12:06;6.70;99.90
25250;DHT22;13201;51.148;13.738;2023-12-14T08:14:35;6.60;99.90
25250;DHT22;13201;51.148;13.738;2023-12-14T08:17:03;6.60;99.90
25250;DHT22;13201;51.148;13.738;2023-12-14T08:19:29;6.80;99.90
25250;DHT22;13201;51.148;13.738;2023-12-14T08:21:55;6.70;99.90
25250;DHT22;13201;51.148;13.738;2023-12-14T08:24:21;6.60;99.90
25250;DHT22;13201;51.148;13.738;2023-12-14T08:26:47;6.70;99.90
25250;DHT22;13201;51.148;13.738;2023-12-14T08:29:12;6.60;99.90
25250;DHT22;13201;51.148;13.738;2023-12-14T08:31:38;6.70;99.90
25250;DHT22;13201;51.148;13.738;2023-12-14T08:34:03;6.70;99.90
25250;DHT22;13201;51.148;13.738;2023-12-14T08:36:29;6.70;99.90
25250;DHT22;13201;51.148;13.738;2023-12-14T08:38:57;6.80;99.90
25250;DHT22;13201;51.148;13.738;2023-12-14T08:41:22;6.70;99.90
25250;DHT22;13201;51.148;13.738;2023-12-14T08:43:48;6.70;99.90
25250;DHT22;13201;51.148;13.738;2023-12-14T08:46:13;6.70;99.90
25250;DHT22;13201;51.148;13.738;2023-12-14T08:48:39;6.80;99.90
25250;DHT22;13201;51.148;13.738;2023-12-14T08:51:05;6.90;99.90
25250;DHT22;13201;51.148;13.738;2023-12-14T08:53:31;6.90;99.90
25250;DHT22;13201;51.148;13.738;2023-12-14T08:55:57;6.90;99.90
25250;DHT22;13201;51.148;13.738;2023-12-14T08:58:22;6.90;99.90
25250;DHT22;13201;51.148;13.738;2023-12-14T09:00:48;6.70;99.90
25250;DHT22;13201;51.148;13.738;2023-12-14T09:03:18;6.60;99.90
25250;DHT22;13201;51.148;13.738;2023-12-14T09:05:44;6.60;99.90
25250;DHT22;13201;51.148;13.738;2023-12-14T09:08:10;6.60;99.90
25250;DHT22;13201;51.148;13.738;2023-12-14T09:10:38;6.70;99.90
25250;DHT22;13201;51.148;13.738;2023-12-14T09:13:03;6.70;99.90
25250;DHT22;13201;51.148;13.738;2023-12-14T09:15:31;6.50;99.90
25250;DHT22;13201;51.148;13.738;2023-12-14T09:17:57;6.70;99.90
25250;DHT22;13201;51.148;13.738;2023-12-14T09:20:22;6.70;99.90
25250;DHT22;13201;51.148;13.738;2023-12-14T09:22:49;6.80;99.90
25250;DHT22;13201;51.148;13.738;2023-12-14T09:25:15;6.50;99.90
25250;DHT22;13201;51.148;13.738;2023-12-14T09:27:41;6.50;99.90
25250;DHT22;13201;51.148;13.738;2023-12-14T09:30:07;6.40;99.90
25250;DHT22;13201;51.148;13.738;2023-12-14T09:32:33;6.30;99.90
25250;DHT22;13201;51.148;13.738;2023-12-14T09:34:59;6.20;99.90
25250;DHT22;13201;51.148;13.738;2023-12-14T09:37:25;6.20;99.90
25250;DHT22;13201;51.148;13.738;2023-12-14T09:39:51;6.10;99.90
25250;DHT22;13201;51.148;13.738;2023-12-14T09:42:18;6.00;99.90
25250;DHT22;13201;51.148;13.738;2023-12-14T09:44:50;5.90;99.90
25250;DHT22;13201;51.148;13.738;2023-12-14T09:47:15;6.00;99.90
25250;DHT22;13201;51.148;13.738;2023-12-14T09:49:42;6.10;99.90
25250;DHT22;13201;51.148;13.738;2023-12-14T09:52:10;6.10;99.90
25250;DHT22;13201;51.148;13.738;2023-12-14T09:54:36;6.10;99.90
25250;DHT22;13201;51.148;13.738;2023-12-14T09:57:02;6.20;99.90
25250;DHT22;13201;51.148;13.738;2023-12-14T09:59:28;6.10;99.90
25250;DHT22;13201;51.148;13.738;2023-12-14T10:02:09;6.10;99.90
25250;DHT22;13201;51.148;13.738;2023-12-14T10:04:35;6.10;99.90
25250;DHT22;13201;51.148;13.738;2023-12-14T10:07:02;6.20;99.90
25250;DHT22;13201;51.148;13.738;2023-12-14T10:09:36;6.40;99.90
25250;DHT22;13201;51.148;13.738;2023-12-14T10:12:04;6.40;99.90
25250;DHT22;13201;51.148;13.738;2023-12-14T10:14:31;6.20;99.90
25250;DHT22;13201;51.148;13.738;2023-12-14T10:16:58;6.20;99.90
25250;DHT22;13201;51.148;13.738;2023-12-14T10:19:23;6.20;99.90
25250;DHT22;13201;51.148;13.738;2023-12-14T10:21:50;6.30;99.90
25250;DHT22;13201;51.148;13.738;2023-12-14T10:24:16;6.30;99.90
25250;DHT22;13201;51.148;13.738;2023-12-14T10:26:45;6.30;99.90
25250;DHT22;13201;51.148;13.738;2023-12-14T10:29:11;6.20;99.90
25250;DHT22;13201;51.148;13.738;2023-12-14T10:31:37;6.30;99.90
25250;DHT22;13201;51.148;13.738;2023-12-14T10:34:03;6.20;99.90
25250;DHT22;13201;51.148;13.738;2023-12-14T10:36:30;6.20;99.90
25250;DHT22;13201;51.148;13.738;2023-12-14T10:39:00;6.20;99.90
25250;DHT22;13201;51.148;13.738;2023-12-14T10:41:27;6.10;99.90
25250;DHT22;13201;51.148;13.738;2023-12-14T10:43:56;5.90;99.90
25250;DHT22;13201;51.148;13.738;2023-12-14T10:46:23;5.90;99.90
25250;DHT22;13201;51.148;13.738;2023-12-14T10:48:50;5.80;99.90
25250;DHT22;13201;51.148;13.738;2023-12-14T10:51:19;5.80;99.90
25250;DHT22;13201;51.148;13.738;2023-12-14T10:53:46;5.80;99.90
25250;DHT22;13201;51.148;13.738;2023-12-14T10:56:14;5.60;99.90
25250;DHT22;13201;51.148;13.738;2023-12-14T10:58:53;5.70;99.90
25250;DHT22;13201;51.148;13.738;2023-12-14T11:01:20;5.70;99.90
25250;DHT22;13201;51.148;13.738;2023-12-14T11:03:47;5.70;99.90
25250;DHT22;13201;51.148;13.738;2023-12-14T11:09:07;5.70;99.90
25250;DHT22;13201;51.148;13.738;2023-12-14T11:11:47;5.60;99.90
25250;DHT22;13201;51.148;13.738;2023-12-14T11:14:23;5.60;99.90
25250;DHT22;13201;51.148;13.738;2023-12-14T11:16:50;5.60;99.90
25250;DHT22;13201;51.148;13.738;2023-12-14T11:24:20;5.70;99.90
25250;DHT22;13201;51.148;13.738;2023-12-14T11:26:52;5.70;99.90
25250;DHT22;13201;51.148;13.738;2023-12-14T11:29:18;5.70;99.90
25250;DHT22;13201;51.148;13.738;2023-12-14T11:31:44;5.80;99.90
25250;DHT22;13201;51.148;13.738;2023-12-14T11:34:11;5.70;99.90
25250;DHT22;13201;51.148;13.738;2023-12-14T11:36:37;5.80;99.90
25250;DHT22;13201;51.148;13.738;2023-12-14T11:39:09;5.70;99.90
25250;DHT22;13201;51.148;13.738;2023-12-14T11:41:35;5.70;99.90
25250;DHT22;13201;51.148;13.738;2023-12-14T11:44:01;5.70;99.90
25250;DHT22;13201;51.148;13.738;2023-12-14T11:46:28;5.70;99.90
25250;DHT22;13201;51.148;13.738;2023-12-14T11:48:56;5.60;99.90
25250;DHT22;13201;51.148;13.738;2023-12-14T11:51:22;5.60;99.90
25250;DHT22;13201;51.148;13.738;2023-12-14T11:53:49;5.60;99.90
25250;DHT22;13201;51.148;13.738;2023-12-14T11:56:17;5.70;99.90
25250;DHT22;13201;51.148;13.738;2023-12-14T11:58:44;5.50;99.90
25250;DHT22;13201;51.148;13.738;2023-12-14T12:01:11;5.60;99.90
25250;DHT22;13201;51.148;13.738;2023-12-14T12:03:37;5.50;99.90
25250;DHT22;13201;51.148;13.738;2023-12-14T12:06:03;5.50;99.90
25250;DHT22;13201;51.148;13.738;2023-12-14T12:08:29;5.60;99.90
25250;DHT22;13201;51.148;13.738;2023-12-14T12:10:57;5.50;99.90
25250;DHT22;13201;51.148;13.738;2023-12-14T12:13:22;5.40;99.90
25250;DHT22;13201;51.148;13.738;2023-12-14T12:15:48;5.40;99.90
25250;DHT22;13201;51.148;13.738;2023-12-14T12:18:16;5.40;99.90
25250;DHT22;13201;51.148;13.738;2023-12-14T12:20:44;5.50;99.90
25250;DHT22;13201;51.148;13.738;2023-12-14T12:23:10;5.60;99.90
25250;DHT22;13201;51.148;13.738;2023-12-14T12:25:36;5.40;99.90
25250;DHT22;13201;51.148;13.738;2023-12-14T12:28:02;5.50;99.90
25250;DHT22;13201;51.148;13.738;2023-12-14T12:30:31;5.50;99.90
25250;DHT22;13201;51.148;13.738;2023-12-14T12:32:57;5.60;99.90
25250;DHT22;13201;51.148;13.738;2023-12-14T12:35:24;5.60;99.90
25250;DHT22;13201;51.148;13.738;2023-12-14T12:37:51;5.60;99.90
25250;DHT22;13201;51.148;13.738;2023-12-14T12:40:23;5.60;99.90
25250;DHT22;13201;51.148;13.738;2023-12-14T12:42:51;5.40;99.90
25250;DHT22;13201;51.148;13.738;2023-12-14T12:45:17;5.60;99.90
25250;DHT22;13201;51.148;13.738;2023-12-14T12:47:43;5.70;99.90
25250;DHT22;13201;51.148;13.738;2023-12-14T12:50:10;5.70;99.90
25250;DHT22;13201;51.148;13.738;2023-12-14T12:52:36;5.70;99.90
25250;DHT22;13201;51.148;13.738;2023-12-14T12:55:04;5.60;99.90
25250;DHT22;13201;51.148;13.738;2023-12-14T12:57:29;5.40;99.90
25250;DHT22;13201;51.148;13.738;2023-12-14T12:59:55;5.40;99.90
25250;DHT22;13201;51.148;13.738;2023-12-14T13:02:21;5.50;99.90
25250;DHT22;13201;51.148;13.738;2023-12-14T13:04:46;5.40;99.90
25250;DHT22;13201;51.148;13.738;2023-12-14T13:07:12;5.30;99.90
25250;DHT22;13201;51.148;13.738;2023-12-14T13:09:38;5.30;99.90
25250;DHT22;13201;51.148;13.738;2023-12-14T13:12:04;5.40;99.90
25250;DHT22;13201;51.148;13.738;2023-12-14T13:14:30;5.50;99.90
25250;DHT22;13201;51.148;13.738;2023-12-14T13:16:56;5.50;99.90
25250;DHT22;13201;51.148;13.738;2023-12-14T13:19:24;5.40;99.90
25250;DHT22;13201;51.148;13.738;2023-12-14T13:21:51;5.50;99.90
25250;DHT22;13201;51.148;13.738;2023-12-14T13:24:17;5.50;99.90
25250;DHT22;13201;51.148;13.738;2023-12-14T13:26:43;5.40;99.90
25250;DHT22;13201;51.148;13.738;2023-12-14T13:29:09;5.20;99.90
25250;DHT22;13201;51.148;13.738;2023-12-14T13:31:35;5.20;99.90
25250;DHT22;13201;51.148;13.738;2023-12-14T13:34:01;5.30;99.90
25250;DHT22;13201;51.148;13.738;2023-12-14T13:36:27;5.30;99.90
25250;DHT22;13201;51.148;13.738;2023-12-14T13:38:53;5.10;99.90
25250;DHT22;13201;51.148;13.738;2023-12-14T13:41:19;5.10;99.90
25250;DHT22;13201;51.148;13.738;2023-12-14T13:43:45;5.10;99.90
25250;DHT22;13201;51.148;13.738;2023-12-14T13:46:11;5.20;99.90
25250;DHT22;13201;51.148;13.738;2023-12-14T13:48:37;5.20;99.90
25250;DHT22;13201;51.148;13.738;2023-12-14T13:51:02;5.20;99.90
25250;DHT22;13201;51.148;13.738;2023-12-14T13:53:28;5.20;99.90
25250;DHT22;13201;51.148;13.738;2023-12-14T13:55:54;5.20;99.90
25250;DHT22;13201;51.148;13.738;2023-12-14T13:58:20;5.20;99.90
25250;DHT22;13201;51.148;13.738;2023-12-14T14:00:45;5.10;99.90
25250;DHT22;13201;51.148;13.738;2023-12-14T14:03:12;5.30;99.90
25250;DHT22;13201;51.148;13.738;2023-12-14T14:05:38;5.40;99.90
25250;DHT22;13201;51.148;13.738;2023-12-14T14:08:04;5.40;99.90
25250;DHT22;13201;51.148;13.738;2023-12-14T14:10:30;5.30;99.90
25250;DHT22;13201;51.148;13.738;2023-12-14T14:12:55;5.30;99.90
25250;DHT22;13201;51.148;13.738;2023-12-14T14:15:21;5.30;99.90
25250;DHT22;13201;51.148;13.738;2023-12-14T14:17:47;5.40;99.90
25250;DHT22;13201;51.148;13.738;2023-12-14T14:20:18;5.20;99.90
25250;DHT22;13201;51.148;13.738;2023-12-14T14:22:43;5.30;99.90
25250;DHT22;13201;51.148;13.738;2023-12-14T14:25:09;5.40;99.90
25250;DHT22;13201;51.148;13.738;2023-12-14T14:27:35;5.40;99.90
25250;DHT22;13201;51.148;13.738;2023-12-14T14:30:01;5.30;99.90
25250;DHT22;13201;51.148;13.738;2023-12-14T14:32:27;5.40;99.90
25250;DHT22;13201;51.148;13.738;2023-12-14T14:34:53;5.40;99.90
25250;DHT22;13201;51.148;13.738;2023-12-14T14:37:20;5.30;99.90
25250;DHT22;13201;51.148;13.738;2023-12-14T14:39:46;5.20;99.90
25250;DHT22;13201;51.148;13.738;2023-12-14T14:42:13;5.20;99.90
25250;DHT22;13201;51.148;13.738;2023-12-14T14:44:39;5.10;99.90
25250;DHT22;13201;51.148;13.738;2023-12-14T14:47:05;5.10;99.90
25250;DHT22;13201;51.148;13.738;2023-12-14T14:49:31;5.10;99.90
25250;DHT22;13201;51.148;13.738;2023-12-14T14:51:57;5.10;99.90
25250;DHT22;13201;51.148;13.738;2023-12-14T14:54:23;4.90;99.90
25250;DHT22;13201;51.148;13.738;2023-12-14T14:56:48;5.10;99.90
25250;DHT22;13201;51.148;13.738;2023-12-14T14:59:14;5.20;99.90
25250;DHT22;13201;51.148;13.738;2023-12-14T15:01:41;5.20;99.90
25250;DHT22;13201;51.148;13.738;2023-12-14T15:04:07;5.00;99.90
25250;DHT22;13201;51.148;13.738;2023-12-14T15:06:33;5.10;99.90
25250;DHT22;13201;51.148;13.738;2023-12-14T15:08:59;5.20;99.90
25250;DHT22;13201;51.148;13.738;2023-12-14T15:11:25;5.10;99.90
25250;DHT22;13201;51.148;13.738;2023-12-14T15:13:51;5.20;99.90
25250;DHT22;13201;51.148;13.738;2023-12-14T15:16:17;5.20;99.90
25250;DHT22;13201;51.148;13.738;2023-12-14T15:18:44;5.20;99.90
25250;DHT22;13201;51.148;13.738;2023-12-14T15:21:12;5.20;99.90
25250;DHT22;13201;51.148;13.738;2023-12-14T15:23:38;5.20;99.90
25250;DHT22;13201;51.148;13.738;2023-12-14T15:26:05;5.20;99.90
25250;DHT22;13201;51.148;13.738;2023-12-14T15:28:33;5.20;99.90
25250;DHT22;13201;51.148;13.738;2023-12-14T15:30:59;5.10;99.90
25250;DHT22;13201;51.148;13.738;2023-12-14T15:33:24;4.90;99.90
25250;DHT22;13201;51.148;13.738;2023-12-14T15:35:51;5.10;99.90
25250;DHT22;13201;51.148;13.738;2023-12-14T15:38:17;5.00;99.90
25250;DHT22;13201;51.148;13.738;2023-12-14T15:40:43;5.10;99.90
25250;DHT22;13201;51.148;13.738;2023-12-14T15:43:09;4.90;99.90
25250;DHT22;13201;51.148;13.738;2023-12-14T15:45:34;5.00;99.90
25250;DHT22;13201;51.148;13.738;2023-12-14T15:48:00;5.00;99.90
25250;DHT22;13201;51.148;13.738;2023-12-14T15:50:26;5.00;99.90
25250;DHT22;13201;51.148;13.738;2023-12-14T15:52:52;5.00;99.90
25250;DHT22;13201;51.148;13.738;2023-12-14T15:55:18;5.00;99.90